Terminal Aerodrome Forecast
Issued by NWS Tuscon, AZ

Home | Current Version | Previous Version | Text Only | Print | Product List | Glossary On
Versions: 1 2 3 4 5 6 7 8 9 10 11 12 13 14
000
FTUS45 KTWC 162300
TAFDUG
TAF
KDUG 162333Z 1700/1724 07010KT P6SM -SHRA SCT040 OVC120
     FM170800 11008KT P6SM -SHRA SCT025 OVC040
     FM171600 14010KT P6SM SHRA BKN025 OVC035=

USA.gov is the U.S. government's official web portal to all federal, state and local government web resources and services.